Briefing drone pour Saint-cernin

Rechercher une autre localisation

Conditions de vol :


Nous sommes le : Mardi 27 septembre 2022
Il est 21:27 UTC (23:27 LT)

Lever de soleil : 05:16 UTC (07:16 LT)
Coucher de soleil : 18:05 UTC (20:05 LT)

Météo

L'essentiel des conditions de vol

VIGILANCE MÉTÉO FRANCE - Cantal (15)
Pas de vigilances particulieres
METAR de LFLW
LFLW 272100Z AUTO 25005KT 210V290 5000 -RA BR OVC006 11/10 Q1011

Date d'émission: 27/09/2022
Heure d'émission: 21:00 UTC
Vent: 250° (variable du 210° au 290°) pour 5 KT (9 km/h)
Visibilité horizontale: 5000 m
Plafond :
- Couvert à 600ft (183m)
Température: 11 °C
Point de rosée: 10 °C
Humidité: 94%
Pression (QNH): 1011 hPa
Conditions: Faible pluie
Prévision 24h pour Aurillac (9 km)
Vent : 255° pour 3 KT (10 km/h)
Temperature Maxi: 11 °C
Temperature Min: 11 °C
Humidité : 99%
Condition : Légère pluie



Warning: count(): Parameter must be an array or an object that implements Countable in /homepages/6/d509196549/htdocs/droneoxygene/briefing.php on line 743
WEBCAM POUR SAINT-CERNIN

Réglementation

Voler en sécurité

CARTES AERONAUTIQUE 1/500.000
CARTE AZBA (Reseau basse altitude)
CARTES VAC (LFLW)
SUP AIP




Chargement des AIP...
NOTAM (SAINT-CERNIN + Terrain à proximité / FIR )




Chargement des NOTAMS...
CONTACT PREFECTURE 15


Avertissement : Les données mises à disposition sont indicatives. Oxygène Drone ne pourra être tenu responsable de dégâts causés aux biens et aux personnes.